createdAt,value
2019-05-13T00:00:34.131Z,69.50
2019-05-13T00:03:03.993Z,71.50
2019-05-13T00:05:33.908Z,71.70
2019-05-13T00:08:03.541Z,72.00
2019-05-13T00:10:34.774Z,71.10
2019-05-13T00:13:04.476Z,72.00
2019-05-13T00:15:34.101Z,72.50
2019-05-13T00:18:03.897Z,74.20
2019-05-13T00:20:33.789Z,74.20
2019-05-13T00:23:03.997Z,73.60
2019-05-13T00:25:33.829Z,74.20
2019-05-13T00:28:04.153Z,73.50
2019-05-13T00:30:34.315Z,73.40
2019-05-13T00:33:03.862Z,72.80
2019-05-13T00:35:33.886Z,73.60
2019-05-13T00:38:03.791Z,73.30
2019-05-13T00:40:33.745Z,72.40
2019-05-13T00:43:03.927Z,72.20
2019-05-13T00:45:34.004Z,72.80
2019-05-13T00:48:04.615Z,72.70
2019-05-13T00:50:33.784Z,72.90
2019-05-13T00:53:04.393Z,73.10
2019-05-13T00:55:34.367Z,73.10
2019-05-13T00:58:04.746Z,73.20
2019-05-13T01:00:34.171Z,73.50
2019-05-13T01:03:04.136Z,73.60
2019-05-13T01:05:33.996Z,73.60
2019-05-13T01:08:04.252Z,73.40
2019-05-13T01:10:34.445Z,73.50
2019-05-13T01:13:04.709Z,73.90
2019-05-13T01:15:34.723Z,74.00
2019-05-13T01:18:04.034Z,74.00
2019-05-13T01:20:34.522Z,74.20
2019-05-13T01:23:03.697Z,74.50
2019-05-13T01:25:33.861Z,74.60
2019-05-13T01:28:04.600Z,74.80
2019-05-13T01:30:34.693Z,74.90
2019-05-13T01:33:04.312Z,75.10
2019-05-13T01:35:34.218Z,75.10
2019-05-13T01:38:04.612Z,75.40
2019-05-13T01:40:34.704Z,75.50
2019-05-13T01:43:03.873Z,75.90
2019-05-13T01:45:33.759Z,76.00
2019-05-13T01:48:07.061Z,76.00
2019-05-13T01:50:33.792Z,76.70
2019-05-13T01:53:04.330Z,76.20
2019-05-13T01:55:33.881Z,75.90
2019-05-13T01:58:04.154Z,76.00
2019-05-13T02:00:35.436Z,75.90
2019-05-13T02:03:04.331Z,76.00
2019-05-13T02:05:35.759Z,76.00
2019-05-13T02:08:04.688Z,76.30
2019-05-13T02:10:53.944Z,76.30
2019-05-13T02:13:24.337Z,76.40
2019-05-13T02:15:54.986Z,76.20
2019-05-13T02:18:24.576Z,76.40
2019-05-13T02:20:55.401Z,76.40
2019-05-13T02:23:24.267Z,77.10
2019-05-13T02:25:54.312Z,76.90
2019-05-13T02:28:24.751Z,76.60
2019-05-13T02:30:56.290Z,76.70
2019-05-13T02:33:24.239Z,77.10
2019-05-13T02:35:53.471Z,77.30
2019-05-13T02:38:26.447Z,77.20
2019-05-13T02:40:53.264Z,77.50
2019-05-13T02:43:23.873Z,77.60
2019-05-13T02:45:53.669Z,77.60
2019-05-13T02:48:23.492Z,77.50
2019-05-13T02:50:53.529Z,77.90
2019-05-13T02:53:23.794Z,77.90
2019-05-13T02:55:53.741Z,78.20
2019-05-13T02:58:24.131Z,78.40
2019-05-13T03:00:53.841Z,78.40
2019-05-13T03:03:23.513Z,78.20
2019-05-13T03:05:53.282Z,78.40
2019-05-13T03:08:38.713Z,78.90
2019-05-13T03:10:53.540Z,79.00
2019-05-13T03:13:23.641Z,79.00
2019-05-13T03:15:56.985Z,78.90
2019-05-13T03:18:25.444Z,79.00
2019-05-13T03:20:53.895Z,79.20
2019-05-13T03:23:22.929Z,79.10
2019-05-13T03:25:53.785Z,79.50
2019-05-13T03:28:22.507Z,79.60
2019-05-13T03:30:56.455Z,79.50
2019-05-13T03:33:27.372Z,79.50
2019-05-13T03:35:56.006Z,79.60
2019-05-13T03:38:23.168Z,79.70
2019-05-13T03:40:54.221Z,80.10
2019-05-13T03:43:24.610Z,80.30
2019-05-13T03:45:54.626Z,80.30
2019-05-13T03:48:23.804Z,80.10
2019-05-13T03:50:53.339Z,80.40
2019-05-13T03:53:23.470Z,80.10
2019-05-13T03:55:54.087Z,80.10
2019-05-13T03:58:23.874Z,80.10
2019-05-13T04:00:52.770Z,80.20
2019-05-13T04:03:22.728Z,80.10
2019-05-13T04:05:52.724Z,80.20
2019-05-13T04:08:22.758Z,80.20
2019-05-13T04:10:52.583Z,80.20
2019-05-13T04:13:23.243Z,80.00
2019-05-13T04:15:53.006Z,80.00
2019-05-13T04:18:23.452Z,79.50
2019-05-13T04:20:53.235Z,79.60
2019-05-13T04:23:23.497Z,79.90
2019-05-13T04:25:53.798Z,79.70
2019-05-13T04:28:22.522Z,79.50
2019-05-13T04:30:52.653Z,79.80
2019-05-13T04:33:22.911Z,79.50
2019-05-13T04:35:52.909Z,79.50
2019-05-13T04:38:22.925Z,79.50
2019-05-13T04:40:52.786Z,79.50
2019-05-13T04:43:23.494Z,79.30
2019-05-13T04:45:52.594Z,78.90
2019-05-13T04:48:22.857Z,78.60
2019-05-13T04:50:53.235Z,78.70
2019-05-13T04:53:22.875Z,78.40
2019-05-13T04:55:52.643Z,78.20
2019-05-13T04:58:23.477Z,77.60
2019-05-13T05:01:23.738Z,78.00
2019-05-13T05:04:03.095Z,77.40
2019-05-13T05:06:48.462Z,77.60
2019-05-13T05:10:15.503Z,77.60
2019-05-13T05:12:25.924Z,77.10
2019-05-13T05:15:03.447Z,77.10
2019-05-13T05:17:44.186Z,77.20
2019-05-13T05:20:32.204Z,76.60
2019-05-13T05:23:15.800Z,76.80
2019-05-13T05:25:52.181Z,76.40
2019-05-13T05:28:33.562Z,75.70
2019-05-13T05:31:32.564Z,75.00
2019-05-13T05:34:36.226Z,74.60
2019-05-13T05:37:23.011Z,74.50
2019-05-13T05:39:57.323Z,74.20
2019-05-13T05:42:29.053Z,74.30
2019-05-13T05:45:02.573Z,73.60
2019-05-13T05:47:32.964Z,73.30
2019-05-13T05:50:03.173Z,73.60
2019-05-13T05:52:33.926Z,73.30
2019-05-13T05:55:03.418Z,72.40
2019-05-13T05:57:31.935Z,71.90
2019-05-13T06:00:02.752Z,71.70
2019-05-13T06:02:32.538Z,71.10
2019-05-13T06:05:03.380Z,71.40
2019-05-13T06:07:51.497Z,71.70
2019-05-13T06:10:22.423Z,70.70
2019-05-13T06:12:52.293Z,69.60
2019-05-13T06:15:22.570Z,70.80
2019-05-13T06:17:51.769Z,70.30
2019-05-13T06:20:21.144Z,70.30
2019-05-13T06:22:51.577Z,69.90
2019-05-13T06:25:23.433Z,69.30
2019-05-13T06:27:51.246Z,68.50
2019-05-13T06:30:21.705Z,68.30
2019-05-13T06:32:52.307Z,68.30
2019-05-13T06:35:21.897Z,67.90
2019-05-13T06:37:52.037Z,68.80
2019-05-13T06:40:21.425Z,67.80
2019-05-13T06:42:52.174Z,67.20
2019-05-13T06:45:21.622Z,67.60
2019-05-13T06:47:52.147Z,67.10
2019-05-13T06:50:21.938Z,66.60
2019-05-13T06:52:51.350Z,66.50
2019-05-13T06:55:21.234Z,65.70
2019-05-13T06:57:51.779Z,66.10
2019-05-13T07:00:21.555Z,64.10
2019-05-13T07:02:51.755Z,64.30
2019-05-13T07:05:22.687Z,64.20
2019-05-13T07:07:51.338Z,61.60
2019-05-13T07:10:21.672Z,62.20
2019-05-13T07:12:51.876Z,61.00
2019-05-13T07:15:22.447Z,68.20
2019-05-13T07:17:52.004Z,59.80
2019-05-13T07:20:22.598Z,59.90
2019-05-13T07:22:53.209Z,58.80
2019-05-13T07:25:22.199Z,60.00
2019-05-13T07:27:51.553Z,59.10
2019-05-13T07:30:38.310Z,58.40
2019-05-13T07:33:05.995Z,57.20
2019-05-13T07:35:37.979Z,58.10
2019-05-13T07:38:06.366Z,57.60
2019-05-13T07:40:35.069Z,58.10
2019-05-13T07:43:03.889Z,56.90
2019-05-13T07:45:32.753Z,56.50
2019-05-13T07:48:01.489Z,56.40
2019-05-13T07:50:32.232Z,57.60
2019-05-13T07:53:02.299Z,56.60
2019-05-13T07:55:31.605Z,55.90
2019-05-13T07:58:02.081Z,55.50
2019-05-13T08:00:32.562Z,56.30
2019-05-13T08:03:01.513Z,54.90
2019-05-13T08:05:31.457Z,55.00
2019-05-13T08:08:02.242Z,55.00
2019-05-13T08:10:32.017Z,54.60
2019-05-13T08:13:02.358Z,55.10
2019-05-13T08:15:31.646Z,55.60
2019-05-13T08:18:02.043Z,53.40
2019-05-13T08:20:32.770Z,54.00
2019-05-13T08:23:02.611Z,53.60
2019-05-13T08:25:31.656Z,54.20
2019-05-13T08:28:02.086Z,52.00
2019-05-13T08:30:31.820Z,51.80
2019-05-13T08:33:01.816Z,52.60
2019-05-13T08:35:31.454Z,51.60
2019-05-13T08:38:01.421Z,50.40
2019-05-13T08:40:31.737Z,49.90
2019-05-13T08:43:01.417Z,49.60
2019-05-13T08:45:31.489Z,49.50
2019-05-13T08:48:01.989Z,47.70
2019-05-13T08:50:32.366Z,47.20
2019-05-13T08:53:01.807Z,48.30
2019-05-13T08:55:32.137Z,48.00
2019-05-13T08:58:01.827Z,48.00
2019-05-13T09:00:46.019Z,47.30
2019-05-13T09:03:14.546Z,46.90
2019-05-13T09:05:43.318Z,48.30
2019-05-13T09:08:11.979Z,47.20
2019-05-13T09:10:41.386Z,46.10
2019-05-13T09:13:12.061Z,47.80
2019-05-13T09:15:42.195Z,44.60
2019-05-13T09:18:11.439Z,44.60
2019-05-13T09:20:41.600Z,45.10
2019-05-13T09:23:11.422Z,45.60
2019-05-13T09:25:41.584Z,44.70
2019-05-13T09:28:12.509Z,44.50
2019-05-13T09:30:42.386Z,44.30
2019-05-13T09:33:11.541Z,43.70
2019-05-13T09:35:42.264Z,43.40
2019-05-13T09:38:12.678Z,42.30
2019-05-13T09:40:42.251Z,43.60
2019-05-13T09:43:11.562Z,41.20
2019-05-13T09:45:41.745Z,40.60
2019-05-13T09:48:12.762Z,40.40
2019-05-13T09:50:42.529Z,39.40
2019-05-13T09:53:11.564Z,40.40
2019-05-13T09:55:41.526Z,40.20
2019-05-13T09:58:11.845Z,40.00
2019-05-13T10:00:42.098Z,41.30
2019-05-13T10:03:13.540Z,39.00
2019-05-13T10:05:40.743Z,37.90
2019-05-13T10:08:09.386Z,40.40
2019-05-13T10:10:38.019Z,38.10
2019-05-13T10:13:11.491Z,37.60
2019-05-13T10:15:37.965Z,36.90
2019-05-13T10:18:06.550Z,38.70
2019-05-13T10:20:44.408Z,37.40
2019-05-13T10:23:13.506Z,36.90
2019-05-13T10:25:42.596Z,37.50
2019-05-13T10:28:13.282Z,38.90
2019-05-13T10:30:43.822Z,36.70
2019-05-13T10:33:12.428Z,37.50
2019-05-13T10:35:43.022Z,36.20
2019-05-13T10:38:13.344Z,34.60
2019-05-13T10:40:43.306Z,35.40
2019-05-13T10:43:28.783Z,37.20
2019-05-13T10:45:42.230Z,35.30
2019-05-13T10:48:12.942Z,36.50
2019-05-13T10:50:41.840Z,35.80
2019-05-13T10:53:12.265Z,36.20
2019-05-13T10:55:42.253Z,34.80
2019-05-13T10:58:12.329Z,35.70
2019-05-13T11:00:51.748Z,35.10
2019-05-13T11:03:22.753Z,35.40
2019-05-13T11:05:52.576Z,35.40
2019-05-13T11:08:22.249Z,36.70
2019-05-13T11:10:53.181Z,34.60
2019-05-13T11:13:23.306Z,35.70
2019-05-13T11:15:57.391Z,35.30
2019-05-13T11:18:24.466Z,35.00
2019-05-13T11:20:52.405Z,34.00
2019-05-13T11:23:23.322Z,32.80
2019-05-13T11:25:52.320Z,32.70
2019-05-13T11:28:21.123Z,32.20
2019-05-13T11:30:51.927Z,32.20
2019-05-13T11:33:22.055Z,33.60
2019-05-13T11:35:52.315Z,32.40
2019-05-13T11:38:22.094Z,33.00
2019-05-13T11:40:52.400Z,31.30
2019-05-13T11:43:21.538Z,32.20
2019-05-13T11:45:50.972Z,32.10
2019-05-13T11:48:23.197Z,34.80
2019-05-13T11:50:53.912Z,29.90
2019-05-13T11:55:52.299Z,29.70
2019-05-13T11:58:20.975Z,29.60
2019-05-13T12:00:54.637Z,30.00
2019-05-13T12:03:23.547Z,30.00
2019-05-13T12:05:53.875Z,31.00
2019-05-13T12:08:23.180Z,31.00
2019-05-13T12:10:52.274Z,31.50
2019-05-13T12:13:23.231Z,32.30
2019-05-13T12:15:53.955Z,31.20
2019-05-13T12:18:23.519Z,30.90
2019-05-13T12:20:54.095Z,30.40
2019-05-13T12:23:21.745Z,30.00
2019-05-13T12:25:52.999Z,30.10
2019-05-13T12:28:20.489Z,31.80
2019-05-13T12:30:52.743Z,32.70
2019-05-13T12:33:22.374Z,29.50
2019-05-13T12:35:53.807Z,31.00
2019-05-13T12:38:21.997Z,31.60
2019-05-13T12:40:52.840Z,31.80
2019-05-13T12:43:23.029Z,31.00
2019-05-13T12:45:53.023Z,31.80
2019-05-13T12:48:22.990Z,31.40
2019-05-13T12:50:53.941Z,31.40
2019-05-13T12:53:22.194Z,30.80
2019-05-13T12:55:53.768Z,31.70
2019-05-13T12:58:23.669Z,32.00
2019-05-13T13:00:53.295Z,30.30
2019-05-13T13:03:23.304Z,30.80
2019-05-13T13:05:51.656Z,30.40
2019-05-13T13:08:38.459Z,30.30
2019-05-13T13:10:53.387Z,31.10
2019-05-13T13:13:26.806Z,30.90
2019-05-13T13:15:52.793Z,30.20
2019-05-13T13:18:22.425Z,29.60
2019-05-13T13:20:58.075Z,30.00
2019-05-13T13:23:23.566Z,30.40
2019-05-13T13:25:56.159Z,30.80
2019-05-13T13:28:23.971Z,31.50
2019-05-13T13:30:53.084Z,29.80
2019-05-13T13:33:21.965Z,29.90
2019-05-13T13:35:58.785Z,30.30
2019-05-13T13:38:25.013Z,31.30
2019-05-13T13:40:53.458Z,31.00
2019-05-13T13:43:25.014Z,30.20
2019-05-13T13:46:07.725Z,31.80
2019-05-13T13:48:25.722Z,31.20
2019-05-13T13:50:55.895Z,30.10
2019-05-13T13:53:25.968Z,30.40
2019-05-13T13:55:56.007Z,31.30
2019-05-13T13:58:25.510Z,30.10
2019-05-13T14:01:05.025Z,30.60
2019-05-13T14:03:22.803Z,30.10
2019-05-13T14:05:53.914Z,30.70
2019-05-13T14:06:30.768Z,30.00
2019-05-13T14:08:21.687Z,30.60
2019-05-13T14:10:51.464Z,30.40
2019-05-13T14:13:21.788Z,31.30
2019-05-13T14:15:52.473Z,31.10
2019-05-13T14:18:26.398Z,33.00
2019-05-13T14:20:52.989Z,30.60
2019-05-13T14:23:21.461Z,30.70
2019-05-13T14:25:52.117Z,30.40
2019-05-13T14:28:22.936Z,31.70
2019-05-13T14:30:51.455Z,30.70
2019-05-13T14:33:20.153Z,30.90
2019-05-13T14:35:48.673Z,30.00
2019-05-13T14:38:17.150Z,30.00
2019-05-13T14:40:46.214Z,31.00
2019-05-13T14:43:15.047Z,30.40
2019-05-13T14:45:43.561Z,30.60
2019-05-13T14:48:12.726Z,31.20
2019-05-13T14:50:41.773Z,30.90
2019-05-13T14:53:10.383Z,30.10
2019-05-13T14:55:41.755Z,30.80
2019-05-13T14:58:09.161Z,30.90
2019-05-13T15:00:37.660Z,30.30
2019-05-13T15:03:06.156Z,30.80
2019-05-13T15:05:34.605Z,30.50
2019-05-13T15:08:25.778Z,32.00
2019-05-13T15:10:53.536Z,32.60
2019-05-13T15:13:22.042Z,32.40
2019-05-13T15:15:51.643Z,33.00
2019-05-13T15:18:22.246Z,33.00
2019-05-13T15:20:52.934Z,32.10
2019-05-13T15:23:22.211Z,34.60
2019-05-13T15:25:51.455Z,32.60
2019-05-13T15:28:22.064Z,32.40
2019-05-13T15:30:51.552Z,32.40
2019-05-13T15:33:21.538Z,31.70
2019-05-13T15:35:51.957Z,32.70
2019-05-13T15:38:20.591Z,32.30
2019-05-13T15:40:49.118Z,32.00
2019-05-13T15:43:17.642Z,31.10
2019-05-13T15:45:46.242Z,31.30
2019-05-13T15:48:14.765Z,31.80
2019-05-13T15:50:43.222Z,32.70
2019-05-13T15:53:12.726Z,31.80
2019-05-13T15:55:41.572Z,31.50
2019-05-13T15:58:11.754Z,30.80
2019-05-13T16:00:41.915Z,32.70
2019-05-13T16:03:12.241Z,31.00
2019-05-13T16:05:42.367Z,30.00
2019-05-13T16:08:12.139Z,30.50
2019-05-13T16:10:41.976Z,30.00
2019-05-13T16:13:11.877Z,30.00
2019-05-13T16:15:41.620Z,30.60
2019-05-13T16:18:11.650Z,30.40
2019-05-13T16:20:44.918Z,30.10
2019-05-13T16:23:12.357Z,29.10
2019-05-13T16:25:41.625Z,29.60
2019-05-13T16:28:10.471Z,29.80
2019-05-13T16:30:39.031Z,29.30
2019-05-13T16:33:07.488Z,29.50
2019-05-13T16:35:35.972Z,30.60
2019-05-13T16:38:04.478Z,31.90
2019-05-13T16:40:36.594Z,33.30
2019-05-13T16:43:03.437Z,32.50
2019-05-13T16:45:31.928Z,33.10
2019-05-13T16:48:03.871Z,32.90
2019-05-13T16:50:31.298Z,33.20
2019-05-13T16:53:01.848Z,34.70
2019-05-13T16:55:32.614Z,34.50
2019-05-13T16:58:01.976Z,33.40
2019-05-13T17:00:31.777Z,33.20
2019-05-13T17:03:02.274Z,33.90
2019-05-13T17:05:32.638Z,33.70
2019-05-13T17:08:02.121Z,33.50
2019-05-13T17:10:31.536Z,35.30
2019-05-13T17:13:02.887Z,34.00
2019-05-13T17:15:31.194Z,35.70
2019-05-13T17:18:09.181Z,35.00
2019-05-13T17:20:32.042Z,33.80
2019-05-13T17:23:01.838Z,35.50
2019-05-13T17:25:30.581Z,34.80
2019-05-13T17:27:59.054Z,33.60
2019-05-13T17:30:27.594Z,34.70
2019-05-13T17:32:56.122Z,35.20
2019-05-13T17:35:24.580Z,34.70
2019-05-13T17:37:53.509Z,34.90
2019-05-13T17:40:22.472Z,34.00
2019-05-13T17:42:51.216Z,34.50
2019-05-13T17:45:21.812Z,34.80
2019-05-13T17:47:51.840Z,35.00
2019-05-13T17:50:22.251Z,35.30
2019-05-13T17:52:51.373Z,36.30
2019-05-13T17:55:22.069Z,35.90
2019-05-13T17:57:50.240Z,35.50
2019-05-13T18:00:21.430Z,35.40
2019-05-13T18:02:51.239Z,35.90
2019-05-13T18:05:19.561Z,37.60
2019-05-13T18:07:48.125Z,36.80
2019-05-13T18:10:16.740Z,36.60
2019-05-13T18:12:45.209Z,36.50
2019-05-13T18:15:14.029Z,36.40
2019-05-13T18:17:42.481Z,37.70
2019-05-13T18:20:11.201Z,37.10
2019-05-13T18:22:41.929Z,37.20
2019-05-13T18:25:11.980Z,36.90
2019-05-13T18:27:41.634Z,38.00
2019-05-13T18:30:11.669Z,38.00
2019-05-13T18:32:40.171Z,38.10
2019-05-13T18:35:08.789Z,38.80
2019-05-13T18:37:37.277Z,39.00
2019-05-13T18:40:11.424Z,40.00
2019-05-13T18:42:39.253Z,39.00
2019-05-13T18:45:08.096Z,39.40
2019-05-13T18:47:36.550Z,39.40
2019-05-13T18:50:11.317Z,39.40
2019-05-13T18:52:41.773Z,40.00
2019-05-13T18:55:09.598Z,40.00
2019-05-13T18:57:38.062Z,41.50
2019-05-13T19:00:07.082Z,41.60
2019-05-13T19:02:35.548Z,41.80
2019-05-13T19:05:05.849Z,42.70
2019-05-13T19:07:34.348Z,42.70
2019-05-13T19:10:02.920Z,43.00
2019-05-13T19:12:31.586Z,43.10
2019-05-13T19:15:02.270Z,44.30
2019-05-13T19:17:32.236Z,45.20
2019-05-13T19:20:00.563Z,44.30
2019-05-13T19:22:29.051Z,44.50
2019-05-13T19:24:57.506Z,44.50
2019-05-13T19:27:25.980Z,44.40
2019-05-13T19:29:54.479Z,45.20
2019-05-13T19:32:22.928Z,45.40
2019-05-13T19:34:51.738Z,45.70
2019-05-13T19:37:22.451Z,46.00
2019-05-13T19:39:50.619Z,46.70
2019-05-13T19:42:19.073Z,45.90
2019-05-13T19:44:47.571Z,46.30
2019-05-13T19:47:16.023Z,46.80
2019-05-13T19:49:46.717Z,47.30
2019-05-13T19:52:14.686Z,47.30
2019-05-13T19:54:43.140Z,47.20
2019-05-13T19:57:12.081Z,47.30
2019-05-13T19:59:42.714Z,47.60
2019-05-13T20:02:12.240Z,48.00
2019-05-13T20:04:41.301Z,48.40
2019-05-13T20:07:11.822Z,48.30
2019-05-13T20:09:42.357Z,48.10
2019-05-13T20:12:11.204Z,49.50
2019-05-13T20:14:39.973Z,49.10
2019-05-13T20:17:12.134Z,49.30
2019-05-13T20:19:47.656Z,49.60
2019-05-13T20:22:11.621Z,48.90
2019-05-13T20:24:41.994Z,50.20
2019-05-13T20:27:12.043Z,50.60
2019-05-13T20:29:41.682Z,50.20
2019-05-13T20:32:11.636Z,50.20
2019-05-13T20:34:40.333Z,50.40
2019-05-13T20:37:08.822Z,50.40
2019-05-13T20:39:37.282Z,50.60
2019-05-13T20:42:05.737Z,51.00
2019-05-13T20:44:34.234Z,50.90
2019-05-13T20:47:02.686Z,51.80
2019-05-13T20:49:31.346Z,52.50
2019-05-13T20:52:00.080Z,52.50
2019-05-13T20:54:28.538Z,52.20
2019-05-13T20:56:57.012Z,53.10
2019-05-13T20:59:25.513Z,53.10
2019-05-13T21:01:53.961Z,53.80
2019-05-13T21:04:22.424Z,53.50
2019-05-13T21:06:51.635Z,53.50
2019-05-13T21:09:20.257Z,54.00
2019-05-13T21:11:51.292Z,53.70
2019-05-13T21:14:21.414Z,54.80
2019-05-13T21:16:49.099Z,54.90
2019-05-13T21:19:17.569Z,55.00
2019-05-13T21:21:46.121Z,55.10
2019-05-13T21:24:14.575Z,56.10
2019-05-13T21:26:43.032Z,55.70
2019-05-13T21:29:11.519Z,55.80
2019-05-13T21:31:41.456Z,56.20
2019-05-13T21:34:11.913Z,56.60
2019-05-13T21:36:41.217Z,57.80
2019-05-13T21:39:12.190Z,57.10
2019-05-13T21:41:41.288Z,57.40
2019-05-13T21:44:11.896Z,57.10
2019-05-13T21:46:41.124Z,57.50
2019-05-13T21:49:11.824Z,57.60
2019-05-13T21:51:41.789Z,58.00
2019-05-13T21:54:11.837Z,58.10
2019-05-13T21:56:42.705Z,58.00
2019-05-13T21:59:10.868Z,58.40
2019-05-13T22:01:42.062Z,58.20
2019-05-13T22:04:09.490Z,58.40
2019-05-13T22:06:37.974Z,58.80
2019-05-13T22:09:08.646Z,59.10
2019-05-13T22:11:37.266Z,59.10
2019-05-13T22:14:05.754Z,59.10
2019-05-13T22:16:34.207Z,58.80
2019-05-13T22:19:02.733Z,59.00
2019-05-13T22:21:31.652Z,59.30
2019-05-13T22:24:02.241Z,59.40
2019-05-13T22:26:31.163Z,59.30
2019-05-13T22:28:59.839Z,58.80
2019-05-13T22:31:28.292Z,59.20
2019-05-13T22:33:56.747Z,59.20
2019-05-13T22:36:25.234Z,60.50
2019-05-13T22:38:53.685Z,59.30
2019-05-13T22:41:22.357Z,59.40
2019-05-13T22:43:58.230Z,59.40
2019-05-13T22:46:21.483Z,60.00
2019-05-13T22:48:51.241Z,59.00
2019-05-13T22:51:21.347Z,59.10
2019-05-13T22:53:50.017Z,58.80
2019-05-13T22:56:18.492Z,59.30
2019-05-13T22:58:46.986Z,58.70
2019-05-13T23:01:15.505Z,58.90
2019-05-13T23:03:43.964Z,59.30
2019-05-13T23:06:12.524Z,58.70
2019-05-13T23:08:43.883Z,58.90
2019-05-13T23:11:12.331Z,58.60
2019-05-13T23:13:42.143Z,58.80
2019-05-13T23:16:11.505Z,58.50
2019-05-13T23:18:42.047Z,59.00
2019-05-13T23:21:11.477Z,59.00
2019-05-13T23:23:40.082Z,58.30
2019-05-13T23:26:08.537Z,58.30
2019-05-13T23:28:37.020Z,58.70
2019-05-13T23:31:05.480Z,59.60
2019-05-13T23:33:33.937Z,58.70
2019-05-13T23:36:02.424Z,58.90
2019-05-13T23:38:31.963Z,58.80
2019-05-13T23:41:02.145Z,59.20
2019-05-13T23:43:31.451Z,59.40
2019-05-13T23:46:01.167Z,59.20
2019-05-13T23:48:31.973Z,59.20
2019-05-13T23:51:01.359Z,59.60
2019-05-13T23:53:31.500Z,59.20
2019-05-13T23:56:01.924Z,59.00
2019-05-13T23:58:32.145Z,59.60
